Terminal Aerodrome Forecast
Issued by NWS

Current Version | Previous Version | Text Only | Print | Product List | Glossary On
Versions: 1 2 3 4 5 6 7 8 9 10 11 12 13 14 15 16 17 18 19 20 21 22 23 24 25 26 27 28 29 30 31
000
FTUS41 KCAR 270539
TAFHUL
TAF
KHUL 270539Z 2706/2806 09004KT P6SM OVC035
     FM271100 09009KT P6SM VCSH OVC020 WS020/11045KT
     FM271300 08013G24KT 3SM -SN OVC012 WS020/10050KT
     FM271500 08017G28KT 1SM -SN BLSN OVC007 WS020/10055KT
     FM271800 08018G29KT 1/4SM +SN BLSN OVC013 WS020/10055KT
     FM280000 06011G23KT 2SM -SN OVC007 WS020/13040KT=

USA.gov is the U.S. government's official web portal to all federal, state and local government web resources and services.